Time;durP1;ratioP1;P1;durP2;ratioP2;P2;SDS_P1;SDS_P2;PMS_P1;PMS_P2;Temp;Humidity;BMP_temperature;BMP_pressure;BME280_temperature;BME280_humidity;BME280_pressure;Samples;Min_cycle;Max_cycle;Signal;HPM_P1;HPM_P2
2022/04/03 00:01:15;;;;;;;12.00;7.30;;;;;;;-1.81;92.12;95793.10;108121;1270;37787;-75
2022/04/03 00:03:47;;;;;;;13.20;8.60;;;;;;;-1.79;92.21;95791.31;108067;1270;87549;-75
2022/04/03 00:06:18;;;;;;;10.60;7.10;;;;;;;-1.76;92.03;95792.98;108132;1270;41323;-75
2022/04/03 00:08:49;;;;;;;10.60;7.40;;;;;;;-1.75;92.11;95789.11;108090;1268;107548;-75
2022/04/03 00:11:21;;;;;;;10.60;7.40;;;;;;;-1.76;91.79;95786.52;108070;1270;32862;-75
2022/04/03 00:13:52;;;;;;;10.20;7.10;;;;;;;-1.77;92.00;95788.80;108061;1270;42379;-75
2022/04/03 00:16:24;;;;;;;11.90;7.90;;;;;;;-1.77;92.10;95788.49;108087;1268;45129;-76
2022/04/03 00:18:55;;;;;;;11.70;7.50;;;;;;;-1.76;92.08;95791.67;107950;1273;37596;-75
2022/04/03 00:21:26;;;;;;;9.90;7.00;;;;;;;-1.77;91.92;95793.20;108105;1270;31078;-76
2022/04/03 00:23:57;;;;;;;11.60;7.90;;;;;;;-1.77;91.87;95791.24;108081;1270;38845;-75
2022/04/03 00:26:28;;;;;;;11.90;8.40;;;;;;;-1.76;92.06;95790.44;108053;1270;45505;-76
2022/04/03 00:28:59;;;;;;;12.80;7.90;;;;;;;-1.73;92.05;95792.95;108106;1270;33218;-76
2022/04/03 00:31:30;;;;;;;12.90;7.70;;;;;;;-1.72;92.25;95789.65;108118;1270;34330;-75
2022/04/03 00:34:01;;;;;;;13.40;8.80;;;;;;;-1.72;91.96;95789.17;107855;1270;353448;-75
2022/04/03 00:36:32;;;;;;;13.80;9.50;;;;;;;-1.72;91.92;95792.33;108072;1270;41672;-75
2022/04/03 00:39:03;;;;;;;12.20;9.50;;;;;;;-1.74;92.09;95794.68;108089;1270;43590;-76
2022/04/03 00:41:35;;;;;;;14.30;10.70;;;;;;;-1.75;92.00;95796.74;108086;1270;42057;-75
2022/04/03 00:44:07;;;;;;;16.80;12.00;;;;;;;-1.79;91.84;95799.98;108075;1270;39003;-75
2022/04/03 00:46:39;;;;;;;15.60;11.70;;;;;;;-1.81;92.02;95796.93;108022;1271;37118;-75
2022/04/03 00:49:09;;;;;;;16.10;11.00;;;;;;;-1.79;92.27;95795.04;108158;1270;37988;-75
2022/04/03 00:51:40;;;;;;;17.70;11.80;;;;;;;-1.79;92.42;95797.18;108005;1271;35850;-76
2022/04/03 00:54:12;;;;;;;20.00;13.00;;;;;;;-1.83;93.28;95797.39;108097;1270;34864;-75
2022/04/03 00:56:43;;;;;;;15.00;10.60;;;;;;;-1.87;93.63;95793.75;108118;1270;34354;-75
2022/04/03 00:59:16;;;;;;;16.20;11.90;;;;;;;-1.89;93.95;95794.20;108009;1270;40136;-75
2022/04/03 01:01:47;;;;;;;18.30;12.50;;;;;;;-1.89;94.07;95796.59;108151;1270;34991;-75
2022/04/03 01:04:18;;;;;;;17.30;12.80;;;;;;;-1.89;94.11;95797.23;108120;1270;36692;-75
2022/04/03 01:06:49;;;;;;;19.90;14.50;;;;;;;-1.88;94.28;95799.34;108172;1270;35113;-75
2022/04/03 01:09:19;;;;;;;18.00;12.40;;;;;;;-1.87;94.30;95798.00;108163;1270;30637;-75
2022/04/03 01:11:51;;;;;;;19.60;14.00;;;;;;;-1.85;94.16;95795.98;108128;1270;40745;-75
2022/04/03 01:14:35;;;;;;;21.60;16.00;;;;;;;-1.84;94.15;95798.08;108044;1270;42301;-75
2022/04/03 01:17:07;;;;;;;25.70;19.10;;;;;;;-1.84;93.74;95801.51;108050;1270;34286;-75
2022/04/03 01:19:38;;;;;;;24.70;18.30;;;;;;;-1.85;93.72;95806.05;108038;1270;36537;-75
2022/04/03 01:22:09;;;;;;;29.10;19.20;;;;;;;-1.87;93.56;95802.43;108185;1270;33793;-75
2022/04/03 01:24:44;;;;;;;29.10;20.20;;;;;;;-1.88;93.65;95808.21;108129;1270;43294;-74
2022/04/03 01:27:15;;;;;;;25.00;18.90;;;;;;;-1.91;93.57;95809.17;108251;1270;32276;-75
2022/04/03 01:29:48;;;;;;;30.50;21.40;;;;;;;-1.93;93.62;95815.55;108100;1270;54906;-74
2022/04/03 01:32:18;;;;;;;25.80;18.60;;;;;;;-1.95;93.42;95816.66;108215;1267;31712;-75
2022/04/03 01:34:50;;;;;;;26.50;17.90;;;;;;;-1.96;93.25;95815.95;108100;1270;35142;-74
2022/04/03 01:37:20;;;;;;;25.80;17.50;;;;;;;-1.96;93.05;95814.91;108061;1270;43803;-75
2022/04/03 01:39:51;;;;;;;22.50;15.80;;;;;;;-1.97;92.67;95815.73;108062;1268;35386;-75
2022/04/03 01:42:22;;;;;;;25.20;17.10;;;;;;;-1.98;92.35;95813.80;108120;1269;87331;-75
2022/04/03 01:44:53;;;;;;;26.80;17.90;;;;;;;-2.01;92.44;95811.08;108071;1270;39883;-75
2022/04/03 01:47:24;;;;;;;23.10;15.90;;;;;;;-2.02;92.55;95814.33;108064;1270;43338;-75
2022/04/03 01:49:55;;;;;;;21.60;14.50;;;;;;;-2.03;92.13;95815.50;107957;1271;39503;-74
2022/04/03 01:52:26;;;;;;;26.30;17.20;;;;;;;-2.04;92.25;95818.95;108059;1270;36553;-75
2022/04/03 01:54:57;;;;;;;22.70;15.90;;;;;;;-2.06;92.16;95824.62;108013;1270;33576;-74
2022/04/03 01:57:27;;;;;;;26.60;17.90;;;;;;;-2.08;91.89;95822.48;108059;1270;40457;-74
2022/04/03 01:59:58;;;;;;;29.10;18.00;;;;;;;-2.10;92.13;95827.88;108076;1270;52349;-75
2022/04/03 02:02:29;;;;;;;25.60;18.90;;;;;;;-2.12;91.95;95832.39;107992;1271;62815;-75
2022/04/03 02:05:00;;;;;;;24.30;16.40;;;;;;;-2.12;91.78;95830.66;108024;1270;45293;-75
2022/04/03 02:07:33;;;;;;;24.20;15.40;;;;;;;-2.14;91.62;95830.77;108022;1270;41223;-75
2022/04/03 02:10:08;;;;;;;24.00;14.70;;;;;;;-2.15;91.35;95829.90;108114;1268;51226;-75
2022/04/03 02:12:39;;;;;;;25.80;16.70;;;;;;;-2.15;90.95;95835.34;108002;1273;36209;-75
2022/04/03 02:15:12;;;;;;;20.80;15.20;;;;;;;-2.16;90.74;95834.59;108037;1270;43707;-75
2022/04/03 02:17:43;;;;;;;23.50;15.00;;;;;;;-2.18;90.62;95839.21;108104;1270;48233;-75
2022/04/03 02:20:14;;;;;;;22.60;16.50;;;;;;;-2.20;90.39;95842.39;108018;1272;42593;-75
2022/04/03 02:22:45;;;;;;;23.00;15.80;;;;;;;-2.22;90.41;95841.98;108194;1270;34510;-75
2022/04/03 02:25:16;;;;;;;26.10;17.30;;;;;;;-2.22;90.38;95842.54;108045;1270;68131;-75
2022/04/03 02:27:48;;;;;;;22.40;16.80;;;;;;;-2.22;90.54;95840.98;108121;1270;41573;-75
2022/04/03 02:30:19;;;;;;;22.60;14.50;;;;;;;-2.23;90.55;95847.15;108078;1270;32545;-75
2022/04/03 02:32:50;;;;;;;25.30;16.30;;;;;;;-2.25;90.44;95848.23;108099;1270;44019;-75
2022/04/03 02:35:21;;;;;;;22.60;16.70;;;;;;;-2.27;90.39;95847.16;108066;1270;51951;-75
2022/04/03 02:37:53;;;;;;;26.00;18.60;;;;;;;-2.30;90.43;95851.80;108165;1268;31275;-75
2022/04/03 02:40:24;;;;;;;25.70;16.70;;;;;;;-2.32;90.51;95850.51;108131;1270;39440;-75
2022/04/03 02:42:55;;;;;;;24.80;16.60;;;;;;;-2.34;90.66;95851.69;108147;1270;33633;-75
2022/04/03 02:45:25;;;;;;;28.10;18.60;;;;;;;-2.36;90.23;95853.35;108150;1270;33032;-75
2022/04/03 02:47:58;;;;;;;24.70;17.00;;;;;;;-2.38;90.32;95857.48;108182;1268;32069;-75
2022/04/03 02:50:29;;;;;;;27.10;17.80;;;;;;;-2.41;90.28;95859.76;108137;1270;33494;-75
2022/04/03 02:53:00;;;;;;;23.50;16.70;;;;;;;-2.42;90.32;95860.45;108114;1270;40065;-75
2022/04/03 02:55:31;;;;;;;29.80;16.70;;;;;;;-2.43;90.09;95861.39;108106;1270;43272;-75
2022/04/03 02:58:02;;;;;;;23.10;16.10;;;;;;;-2.46;89.98;95862.27;108082;1270;42676;-75
2022/04/03 03:00:35;;;;;;;20.10;12.50;;;;;;;-2.49;89.98;95866.05;108094;1270;36552;-75
2022/04/03 03:03:06;;;;;;;20.70;15.30;;;;;;;-2.52;89.95;95871.63;108007;1270;40986;-75
2022/04/03 03:05:38;;;;;;;17.80;12.20;;;;;;;-2.55;89.95;95869.04;108103;1270;42979;-75
2022/04/03 03:08:09;;;;;;;21.40;15.50;;;;;;;-2.58;90.06;95870.71;108060;1270;55951;-75
2022/04/03 03:10:40;;;;;;;21.10;14.70;;;;;;;-2.60;89.90;95871.38;108099;1270;45065;-75
2022/04/03 03:13:12;;;;;;;18.50;14.20;;;;;;;-2.63;89.88;95875.39;108096;1270;36681;-75
2022/04/03 03:15:43;;;;;;;19.60;14.00;;;;;;;-2.65;89.57;95872.52;108141;1270;33512;-75
2022/04/03 03:18:14;;;;;;;15.60;10.40;;;;;;;-2.69;89.54;95878.10;108108;1270;38972;-75
2022/04/03 03:20:46;;;;;;;16.60;10.20;;;;;;;-2.73;89.64;95875.75;108153;1270;40753;-75
2022/04/03 03:23:17;;;;;;;20.20;13.20;;;;;;;-2.76;89.78;95876.91;108199;1270;31227;-75
2022/04/03 03:25:47;;;;;;;20.70;13.70;;;;;;;-2.80;89.80;95879.77;108146;1270;60081;-75
2022/04/03 03:28:18;;;;;;;23.00;14.60;;;;;;;-2.85;89.85;95884.60;108190;1270;44593;-76
2022/04/03 03:30:49;;;;;;;19.60;13.80;;;;;;;-2.90;89.70;95888.43;108183;1269;34996;-75
2022/04/03 03:33:20;;;;;;;17.70;13.20;;;;;;;-2.94;89.88;95893.93;108073;1270;42610;-75
2022/04/03 03:35:51;;;;;;;18.00;11.10;;;;;;;-2.97;89.93;95893.17;108082;1270;44859;-75
2022/04/03 03:38:22;;;;;;;16.80;10.10;;;;;;;-3.01;89.57;95890.85;108134;1270;37566;-75
2022/04/03 03:40:52;;;;;;;15.90;11.10;;;;;;;-3.05;89.56;95901.73;108169;1270;34492;-76
2022/04/03 03:43:23;;;;;;;18.70;10.40;;;;;;;-3.06;89.48;95906.66;108089;1268;44305;-75
2022/04/03 03:45:54;;;;;;;14.50;9.80;;;;;;;-3.08;89.48;95908.52;108068;1268;33958;-75
2022/04/03 03:48:34;;;;;;;11.10;6.10;;;;;;;-3.09;89.64;95903.61;108102;1270;43422;-75
2022/04/03 03:51:05;;;;;;;15.00;8.90;;;;;;;-3.11;89.65;95908.74;108016;1271;34146;-75
2022/04/03 03:53:36;;;;;;;13.20;8.60;;;;;;;-3.12;89.51;95908.48;108107;1270;42014;-75
2022/04/03 03:56:09;;;;;;;11.90;7.90;;;;;;;-3.13;89.37;95911.34;108061;1270;28769;-75
2022/04/03 03:58:39;;;;;;;12.40;8.80;;;;;;;-3.14;89.35;95920.29;108132;1270;43548;-75
2022/04/03 04:01:12;;;;;;;12.90;9.10;;;;;;;-3.15;89.35;95922.22;108115;1270;28438;-75
2022/04/03 04:03:43;;;;;;;17.80;10.40;;;;;;;-3.15;89.07;95929.59;108090;1268;42888;-75
2022/04/03 04:06:14;;;;;;;14.30;8.90;;;;;;;-3.15;89.25;95928.44;108060;1270;43327;-75
2022/04/03 04:08:45;;;;;;;17.10;9.20;;;;;;;-3.19;89.37;95930.55;108126;1270;30565;-75
2022/04/03 04:11:16;;;;;;;16.00;9.20;;;;;;;-3.21;89.43;95937.23;108091;1270;43131;-74
2022/04/03 04:13:47;;;;;;;17.60;10.30;;;;;;;-3.22;89.51;95932.95;108146;1270;41999;-75
2022/04/03 04:16:18;;;;;;;12.60;9.40;;;;;;;-3.23;89.48;95942.34;108007;1273;38582;-75
2022/04/03 04:18:49;;;;;;;14.10;8.10;;;;;;;-3.25;89.54;95940.33;108142;1270;99771;-75
2022/04/03 04:21:20;;;;;;;13.90;9.00;;;;;;;-3.27;89.35;95942.22;107998;1273;39634;-75
2022/04/03 04:23:51;;;;;;;16.90;9.20;;;;;;;-3.30;89.42;95947.43;108075;1270;42760;-75
2022/04/03 04:26:22;;;;;;;15.60;9.70;;;;;;;-3.31;89.46;95953.61;108116;1270;35975;-75
2022/04/03 04:28:53;;;;;;;12.30;8.60;;;;;;;-3.33;89.41;95948.84;108122;1270;43077;-75
2022/04/03 04:31:24;;;;;;;9.70;6.20;;;;;;;-3.34;89.51;95951.20;108104;1270;34037;-75
2022/04/03 04:33:55;;;;;;;11.30;7.80;;;;;;;-3.35;89.35;95955.52;108179;1270;30052;-75
2022/04/03 04:36:26;;;;;;;13.10;7.30;;;;;;;-3.36;89.31;95958.91;108124;1270;31342;-75
2022/04/03 04:38:57;;;;;;;13.00;8.20;;;;;;;-3.38;89.36;95960.10;108114;1270;35639;-74
2022/04/03 04:41:28;;;;;;;13.40;8.00;;;;;;;-3.43;89.34;95964.59;108098;1270;44846;-75
2022/04/03 04:43:59;;;;;;;14.60;9.40;;;;;;;-3.44;89.35;95973.16;108117;1270;32897;-74
2022/04/03 04:46:30;;;;;;;17.30;8.20;;;;;;;-3.43;89.35;95973.77;108013;1270;37998;-74
2022/04/03 04:49:02;;;;;;;10.80;6.90;;;;;;;-3.41;89.47;95977.09;108078;1270;34093;-75
2022/04/03 04:51:33;;;;;;;14.60;9.10;;;;;;;-3.40;89.32;95983.26;108067;1270;76845;-75
2022/04/03 04:54:05;;;;;;;14.30;8.20;;;;;;;-3.39;89.39;95994.42;108043;1269;48337;-74
2022/04/03 04:56:36;;;;;;;14.80;9.50;;;;;;;-3.37;89.28;95997.42;108065;1270;74250;-74
2022/04/03 04:59:07;;;;;;;13.70;7.10;;;;;;;-3.33;89.08;95995.02;108083;1270;43856;-75
2022/04/03 05:01:39;;;;;;;15.20;8.50;;;;;;;-3.30;89.07;96001.89;108117;1270;34019;-74
2022/04/03 05:04:10;;;;;;;13.20;8.30;;;;;;;-3.27;89.11;96005.61;108149;1270;32612;-74
2022/04/03 05:06:41;;;;;;;12.00;7.40;;;;;;;-3.24;89.07;96009.16;108080;1270;37564;-74
2022/04/03 05:09:13;;;;;;;14.80;8.70;;;;;;;-3.20;88.90;96007.99;108096;1270;34339;-74
2022/04/03 05:11:44;;;;;;;15.20;7.50;;;;;;;-3.17;88.75;96007.30;108020;1270;41456;-74
2022/04/03 05:14:15;;;;;;;15.00;9.50;;;;;;;-3.13;88.69;96002.95;108085;1270;32593;-75
2022/04/03 05:16:47;;;;;;;12.20;7.20;;;;;;;-3.07;88.46;96002.91;108030;1270;33423;-74
2022/04/03 05:19:18;;;;;;;14.40;8.60;;;;;;;-3.04;88.22;96014.70;108115;1270;33739;-74
2022/04/03 05:21:50;;;;;;;14.90;8.80;;;;;;;-2.95;87.99;96011.33;108041;1270;34054;-75
2022/04/03 05:24:21;;;;;;;14.00;9.60;;;;;;;-2.75;87.67;96015.61;108114;1270;50356;-74
2022/04/03 05:26:52;;;;;;;21.70;7.10;;;;;;;-2.44;87.18;96018.63;107975;1271;39301;-75
2022/04/03 05:29:23;;;;;;;13.10;8.70;;;;;;;-2.44;85.87;96024.66;108075;1270;31438;-75
2022/04/03 05:31:56;;;;;;;15.70;9.20;;;;;;;-2.37;85.98;96032.21;108105;1270;43608;-75
2022/04/03 05:34:28;;;;;;;11.60;7.30;;;;;;;-2.34;85.86;96030.29;108068;1270;41072;-75
2022/04/03 05:36:59;;;;;;;15.10;8.90;;;;;;;-2.32;85.78;96042.75;108058;1270;36815;-75
2022/04/03 05:39:30;;;;;;;12.80;9.10;;;;;;;-2.30;85.62;96040.22;108110;1270;36171;-75
2022/04/03 05:42:01;;;;;;;15.70;9.30;;;;;;;-2.36;85.31;96041.03;108041;1270;34153;-75
2022/04/03 05:44:32;;;;;;;17.00;10.00;;;;;;;-2.43;85.33;96045.73;108044;1269;33605;-75
2022/04/03 05:47:03;;;;;;;13.50;9.30;;;;;;;-2.42;85.44;96048.23;108038;1270;34560;-75
2022/04/03 05:49:34;;;;;;;14.90;9.30;;;;;;;-2.47;85.05;96049.08;108053;1270;43552;-75
2022/04/03 05:52:06;;;;;;;14.50;7.80;;;;;;;-2.53;85.05;96056.20;107934;1271;42932;-75
2022/04/03 05:54:37;;;;;;;14.40;7.50;;;;;;;-2.58;84.89;96056.90;108029;1270;34459;-75
2022/04/03 05:57:10;;;;;;;18.30;11.00;;;;;;;-2.57;85.18;96059.31;108030;1270;38584;-74
2022/04/03 05:59:41;;;;;;;9.70;6.00;;;;;;;-2.48;85.32;96063.27;108038;1270;36723;-74
2022/04/03 06:02:12;;;;;;;15.20;9.50;;;;;;;-2.45;85.00;96066.07;108025;1270;56202;-75
2022/04/03 06:04:43;;;;;;;15.20;9.00;;;;;;;-2.46;84.84;96069.52;107991;1270;42693;-74
2022/04/03 06:07:14;;;;;;;14.40;10.30;;;;;;;-2.45;84.58;96068.95;108017;1270;44643;-74
2022/04/03 06:09:45;;;;;;;13.70;7.50;;;;;;;-2.39;84.78;96078.86;108051;1270;46001;-74
2022/04/03 06:12:16;;;;;;;14.60;10.40;;;;;;;-2.32;84.52;96078.06;108105;1270;36339;-75
2022/04/03 06:14:47;;;;;;;13.40;10.40;;;;;;;-2.29;84.40;96077.11;108114;1270;32038;-75
2022/04/03 06:17:18;;;;;;;17.90;10.50;;;;;;;-2.34;83.93;96080.58;108135;1270;45574;-74
2022/04/03 06:19:50;;;;;;;19.20;10.50;;;;;;;-2.36;84.02;96084.37;108044;1270;29859;-75
2022/04/03 06:22:21;;;;;;;15.20;9.60;;;;;;;-2.33;84.01;96087.09;108114;1270;38621;-75
2022/04/03 06:24:52;;;;;;;16.20;11.00;;;;;;;-2.36;83.82;96091.11;108058;1270;37097;-75
2022/04/03 06:27:23;;;;;;;13.30;9.60;;;;;;;-2.32;84.11;96093.79;108072;1270;36535;-75
2022/04/03 06:29:54;;;;;;;17.60;9.80;;;;;;;-2.20;83.91;96090.84;108116;1270;31606;-75
2022/04/03 06:32:25;;;;;;;17.80;10.70;;;;;;;-2.22;83.25;96088.62;108012;1270;58294;-75
2022/04/03 06:34:57;;;;;;;15.80;11.00;;;;;;;-2.23;83.22;96093.73;108087;1270;31678;-74
2022/04/03 06:37:28;;;;;;;15.90;10.10;;;;;;;-2.24;83.23;96088.00;108092;1270;30120;-75
2022/04/03 06:39:59;;;;;;;14.80;9.40;;;;;;;-2.21;83.35;96092.70;108114;1270;33671;-75
2022/04/03 06:42:31;;;;;;;14.80;10.90;;;;;;;-2.18;83.20;96094.05;108135;1270;34485;-75
2022/04/03 06:45:04;;;;;;;16.40;11.70;;;;;;;-1.97;83.15;96098.97;108030;1270;33768;-75
2022/04/03 06:47:36;;;;;;;15.30;10.80;;;;;;;-1.79;82.82;96104.36;108127;1270;40122;-75
2022/04/03 06:50:09;;;;;;;16.30;10.80;;;;;;;-1.67;82.74;96102.77;108096;1270;34180;-75
2022/04/03 06:52:41;;;;;;;18.70;11.90;;;;;;;-1.62;82.39;96104.00;108119;1270;33411;-75
2022/04/03 06:55:13;;;;;;;15.10;10.40;;;;;;;-1.64;81.91;96104.95;108085;1270;41961;-75
2022/04/03 06:57:44;;;;;;;11.80;8.20;;;;;;;-1.63;81.45;96107.50;108079;1270;40472;-75
2022/04/03 07:00:17;;;;;;;10.60;7.50;;;;;;;-1.69;80.91;96108.77;108132;1270;42083;-75
2022/04/03 07:02:49;;;;;;;14.50;10.70;;;;;;;-1.84;80.73;96117.45;108097;1271;33190;-75
2022/04/03 07:05:20;;;;;;;15.40;10.50;;;;;;;-1.78;80.97;96120.45;108197;1270;30626;-74
2022/04/03 07:07:54;;;;;;;17.70;10.80;;;;;;;-1.67;81.05;96128.27;108161;1270;36527;-75
2022/04/03 07:10:26;;;;;;;14.30;11.20;;;;;;;-1.47;81.39;96129.41;108054;1270;61211;-75
2022/04/03 07:12:59;;;;;;;14.30;10.10;;;;;;;-1.41;80.58;96132.05;108198;1270;35012;-75
2022/04/03 07:15:30;;;;;;;13.00;9.40;;;;;;;-1.60;80.30;96143.41;108113;1270;39840;-75
2022/04/03 07:18:01;;;;;;;15.40;10.70;;;;;;;-1.65;80.28;96148.45;108161;1270;35143;-75
2022/04/03 07:20:32;;;;;;;11.50;7.20;;;;;;;-1.62;80.53;96151.34;108155;1270;34520;-75
2022/04/03 07:23:04;;;;;;;16.10;8.50;;;;;;;-1.58;79.99;96149.98;108150;1270;36423;-75
2022/04/03 07:25:35;;;;;;;15.20;10.90;;;;;;;-1.59;80.22;96158.15;108068;1270;39803;-75
2022/04/03 07:28:07;;;;;;;15.30;11.20;;;;;;;-1.54;80.34;96158.15;108129;1270;36694;-75
2022/04/03 07:30:38;;;;;;;13.70;8.30;;;;;;;-1.15;80.63;96159.83;108152;1270;35575;-74
2022/04/03 07:33:09;;;;;;;16.00;10.30;;;;;;;-0.60;79.45;96163.13;108029;1270;31496;-75
2022/04/03 07:35:40;;;;;;;14.70;11.70;;;;;;;-0.31;79.12;96171.58;108036;1270;44126;-75
2022/04/03 07:38:11;;;;;;;20.30;12.40;;;;;;;-0.21;78.08;96173.91;108062;1270;42398;-75
2022/04/03 07:40:42;;;;;;;15.00;10.40;;;;;;;-0.21;78.20;96178.79;108077;1271;52166;-74
2022/04/03 07:43:14;;;;;;;15.50;11.50;;;;;;;0.31;77.49;96180.09;108105;1270;44879;-74
2022/04/03 07:45:46;;;;;;;16.30;10.80;;;;;;;0.62;75.89;96180.98;107973;1271;33643;-74
2022/04/03 07:48:17;;;;;;;11.10;8.60;;;;;;;0.37;74.25;96181.34;108144;1270;50235;-74
2022/04/03 07:50:48;;;;;;;11.40;7.30;;;;;;;0.13;73.76;96185.59;108203;1270;33695;-74
2022/04/03 07:53:20;;;;;;;16.30;11.40;;;;;;;0.35;74.60;96189.09;108170;1270;40845;-74
2022/04/03 07:55:51;;;;;;;16.10;12.00;;;;;;;1.49;73.52;96186.89;108174;1270;31595;-74
2022/04/03 07:58:22;;;;;;;16.20;10.80;;;;;;;1.59;70.44;96188.65;107992;1271;34349;-75
2022/04/03 08:00:53;;;;;;;14.30;9.80;;;;;;;1.80;69.35;96192.77;108154;1270;34307;-75
2022/04/03 08:03:25;;;;;;;13.30;6.80;;;;;;;1.63;67.64;96201.95;108118;1270;32185;-74
2022/04/03 08:05:56;;;;;;;12.20;9.20;;;;;;;1.69;67.60;96206.36;108095;1271;37549;-75
2022/04/03 08:08:29;;;;;;;35.50;18.10;;;;;;;1.52;67.19;96210.19;108101;1270;47309;-73
2022/04/03 08:11:00;;;;;;;26.30;15.10;;;;;;;1.95;68.38;96214.63;108133;1270;35606;-74
2022/04/03 08:13:31;;;;;;;14.20;10.70;;;;;;;2.42;67.59;96214.90;108112;1270;32374;-73
2022/04/03 08:16:03;;;;;;;15.20;10.10;;;;;;;2.29;67.45;96216.58;108122;1270;28153;-74
2022/04/03 08:18:34;;;;;;;16.90;10.90;;;;;;;2.57;67.39;96218.50;107997;1271;35931;-74
2022/04/03 08:21:06;;;;;;;13.50;10.00;;;;;;;2.73;66.16;96214.80;108063;1270;29061;-74
2022/04/03 08:23:37;;;;;;;16.60;10.40;;;;;;;2.57;65.71;96221.91;108047;1271;43606;-75
2022/04/03 08:26:09;;;;;;;16.80;11.10;;;;;;;2.29;65.61;96229.44;107988;1271;58482;-75
2022/04/03 08:28:40;;;;;;;13.90;10.20;;;;;;;2.47;65.82;96229.80;108099;1271;43205;-75
2022/04/03 08:31:11;;;;;;;13.70;9.40;;;;;;;2.60;65.70;96232.84;108009;1270;44003;-75
2022/04/03 08:33:43;;;;;;;13.90;9.70;;;;;;;2.73;64.96;96231.27;108091;1271;42582;-74
2022/04/03 08:36:14;;;;;;;14.50;10.00;;;;;;;2.75;63.78;96239.46;108034;1270;42876;-75
2022/04/03 08:38:45;;;;;;;14.50;10.40;;;;;;;2.62;64.49;96237.80;108137;1271;29421;-74
2022/04/03 08:41:16;;;;;;;15.50;12.30;;;;;;;3.01;65.35;96244.69;108064;1271;42141;-75
2022/04/03 08:43:48;;;;;;;13.10;9.90;;;;;;;3.27;64.79;96245.44;108148;1270;33930;-74
2022/04/03 08:46:19;;;;;;;12.10;9.40;;;;;;;3.04;63.67;96253.54;108181;1271;36267;-74
2022/04/03 08:48:51;;;;;;;12.30;9.30;;;;;;;2.89;63.30;96252.22;108142;1271;32094;-73
2022/04/03 08:51:24;;;;;;;9.30;5.60;;;;;;;3.05;63.05;96255.07;108124;1271;33233;-74
2022/04/03 08:53:56;;;;;;;12.10;8.80;;;;;;;2.57;61.44;96259.27;108061;1271;41120;-73
2022/04/03 08:56:27;;;;;;;13.30;9.40;;;;;;;2.00;62.95;96268.07;108056;1271;43991;-73
2022/04/03 08:58:59;;;;;;;13.10;9.10;;;;;;;2.23;63.65;96270.54;108074;1271;46816;-74
2022/04/03 09:01:31;;;;;;;11.30;8.10;;;;;;;2.17;62.87;96272.94;108030;1271;39553;-73
2022/04/03 09:04:02;;;;;;;13.00;8.80;;;;;;;1.99;63.65;96278.09;107980;1271;46566;-73
2022/04/03 09:06:33;;;;;;;11.20;7.70;;;;;;;1.64;64.27;96286.33;107950;1271;43601;-74
2022/04/03 09:09:07;;;;;;;12.90;9.50;;;;;;;1.63;64.64;96289.52;108103;1271;40126;-73
2022/04/03 09:11:41;;;;;;;14.20;10.50;;;;;;;1.93;65.83;96292.69;108067;1271;47975;-74
2022/04/03 09:14:14;;;;;;;13.20;8.80;;;;;;;2.51;65.94;96290.92;108080;1271;31445;-73
2022/04/03 09:16:45;;;;;;;15.00;9.50;;;;;;;2.60;64.62;96294.50;107932;1274;31294;-73
2022/04/03 09:19:17;;;;;;;12.00;7.30;;;;;;;2.56;64.66;96293.59;108105;1271;40961;-74
2022/04/03 09:21:50;;;;;;;15.80;9.80;;;;;;;2.20;63.30;96294.85;108105;1270;30870;-74
2022/04/03 09:24:22;;;;;;;12.90;9.30;;;;;;;2.19;65.41;96295.05;108107;1270;48104;-74
2022/04/03 09:27:00;;;;;;;13.40;8.50;;;;;;;2.34;63.76;96298.98;108053;1271;34594;-74
2022/04/03 09:29:31;;;;;;;13.50;8.00;;;;;;;1.54;63.57;96298.13;107993;1271;42509;-74
2022/04/03 09:32:04;;;;;;;13.60;9.00;;;;;;;1.29;64.78;96301.16;108016;1271;44689;-73
2022/04/03 09:34:35;;;;;;;13.00;8.50;;;;;;;1.09;65.27;96309.37;108034;1271;32652;-73
2022/04/03 09:37:07;;;;;;;13.10;7.80;;;;;;;1.48;66.08;96309.21;108061;1271;33537;-73
2022/04/03 09:39:38;;;;;;;14.50;8.20;;;;;;;1.49;64.37;96309.45;108016;1271;43920;-73
2022/04/03 09:42:12;;;;;;;13.80;8.10;;;;;;;0.98;63.96;96314.76;108033;1271;36040;-73
2022/04/03 09:44:45;;;;;;;8.70;5.70;;;;;;;0.87;64.88;96315.27;108126;1269;40023;-73
2022/04/03 09:47:26;;;;;;;11.40;8.60;;;;;;;0.83;64.58;96317.05;108038;1270;45460;-73
2022/04/03 09:49:59;;;;;;;12.10;7.00;;;;;;;0.82;64.80;96316.91;108045;1271;35519;-73
2022/04/03 09:52:43;;;;;;;8.40;5.20;;;;;;;0.69;65.09;96319.80;108057;1270;46030;-73
2022/04/03 09:55:22;;;;;;;12.20;7.30;;;;;;;0.90;66.02;96325.92;108073;1271;35784;-73
2022/04/03 09:58:04;;;;;;;11.00;8.10;;;;;;;1.26;64.75;96325.52;108058;1271;50272;-73
2022/04/03 10:00:38;;;;;;;17.00;9.90;;;;;;;1.54;65.57;96335.01;108004;1271;43784;-73
2022/04/03 10:03:12;;;;;;;12.00;8.20;;;;;;;1.99;64.49;96330.43;108007;1271;44738;-72
2022/04/03 10:05:45;;;;;;;13.00;7.60;;;;;;;1.83;62.85;96327.90;108041;1271;37225;-73
2022/04/03 10:08:17;;;;;;;9.60;4.70;;;;;;;1.56;62.84;96333.22;108046;1270;41837;-73
2022/04/03 10:10:48;;;;;;;12.50;8.00;;;;;;;1.32;62.57;96335.55;107968;1274;45204;-73
2022/04/03 10:13:22;;;;;;;12.90;7.70;;;;;;;1.53;63.28;96332.67;108048;1271;34952;-73
2022/04/03 10:15:54;;;;;;;13.10;8.30;;;;;;;1.47;63.02;96338.56;108024;1271;37833;-73
2022/04/03 10:18:25;;;;;;;13.90;8.70;;;;;;;1.69;64.35;96340.49;108027;1271;31631;-73
2022/04/03 10:20:56;;;;;;;7.60;5.70;;;;;;;2.25;64.31;96335.23;108058;1271;41376;-72
2022/04/03 10:23:33;;;;;;;11.30;6.10;;;;;;;2.13;61.69;96336.23;108044;1271;39983;-73
2022/04/03 10:26:08;;;;;;;9.60;6.30;;;;;;;1.79;62.60;96343.17;108026;1270;33181;-73
2022/04/03 10:28:41;;;;;;;12.30;7.40;;;;;;;1.66;62.41;96348.48;108046;1271;39889;-74
2022/04/03 10:31:17;;;;;;;12.10;7.50;;;;;;;1.62;62.78;96351.39;108036;1271;43427;-73
2022/04/03 10:33:51;;;;;;;11.00;7.00;;;;;;;1.86;63.57;96354.30;108074;1271;42366;-73
2022/04/03 10:36:29;;;;;;;13.60;8.00;;;;;;;1.81;62.12;96351.31;108033;1271;31968;-74
2022/04/03 10:39:03;;;;;;;11.60;5.40;;;;;;;1.63;62.40;96356.89;108050;1270;49043;-74
2022/04/03 10:41:36;;;;;;;10.20;6.80;;;;;;;1.39;62.34;96355.08;108020;1271;35963;-74
2022/04/03 10:44:19;;;;;;;7.20;4.60;;;;;;;1.11;63.04;96358.98;108087;1271;44543;-74
2022/04/03 10:47:21;;;;;;;10.60;7.30;;;;;;;0.72;63.39;96358.81;108113;1271;30769;-73
2022/04/03 10:50:01;;;;;;;9.90;6.80;;;;;;;0.95;64.30;96364.69;108133;1270;29242;-73
2022/04/03 10:52:56;;;;;;;13.50;7.00;;;;;;;1.15;64.23;96363.41;108014;1271;41845;-74
2022/04/03 10:55:29;;;;;;;10.90;7.40;;;;;;;1.25;63.55;96362.02;108100;1270;35627;-74
2022/04/03 10:58:04;;;;;;;15.80;9.80;;;;;;;1.52;65.16;96359.09;108177;1270;30750;-73
2022/04/03 11:00:40;;;;;;;12.80;8.10;;;;;;;1.99;64.52;96356.73;108088;1270;44643;-73
2022/04/03 11:03:37;;;;;;;14.50;8.70;;;;;;;2.29;64.35;96355.70;108087;1269;42028;-74
2022/04/03 11:06:27;;;;;;;11.00;7.40;;;;;;;2.70;64.09;96354.75;108069;1271;32526;-74
2022/04/03 11:09:16;;;;;;;11.90;6.10;;;;;;;2.96;62.09;96355.11;108012;1271;33845;-73
2022/04/03 11:11:56;;;;;;;10.50;5.70;;;;;;;2.35;60.11;96355.50;108079;1270;44766;-73
2022/04/03 11:14:53;;;;;;;7.90;4.20;;;;;;;1.65;61.24;96359.80;108031;1270;42797;-74
2022/04/03 11:17:52;;;;;;;9.70;5.10;;;;;;;1.26;62.09;96363.08;107972;1271;43589;-74
2022/04/03 11:20:42;;;;;;;7.70;3.60;;;;;;;1.09;61.10;96356.63;108035;1270;44450;-74
2022/04/03 11:23:17;;;;;;;73.50;41.60;;;;;;;1.01;62.19;96364.50;108078;1271;44804;-74
2022/04/03 11:25:50;;;;;;;6.20;3.50;;;;;;;1.47;63.39;96366.19;108106;1270;42577;-74
2022/04/03 11:28:23;;;;;;;10.20;5.70;;;;;;;1.57;61.75;96363.91;108111;1270;32241;-74
2022/04/03 11:30:54;;;;;;;13.00;7.00;;;;;;;1.65;62.09;96369.31;108106;1270;34423;-73
2022/04/03 11:33:26;;;;;;;14.60;8.10;;;;;;;1.94;61.69;96368.21;107888;1271;46543;-74
2022/04/03 11:36:04;;;;;;;14.70;7.70;;;;;;;2.24;61.52;96367.05;108072;1270;33955;-73
2022/04/03 11:38:40;;;;;;;26.30;13.60;;;;;;;2.64;60.45;96372.50;107990;1271;45314;-73
2022/04/03 11:41:15;;;;;;;18.10;9.70;;;;;;;2.81;60.13;96369.20;107989;1271;43280;-73